Airfield :
LOGIN :

Register | Disclaimer

   EN    FR    IT 

 










Legend :    VFR   Marginal VFR   IFR   Intensive IFR   Very Intensive IFR
Visi :
Ceiling :
>= 8 km
>= 3000ft
5 to 8 km
1000 to 3000 ft
1500m to 5 km
500 to 1000 ft
800 to 1500m
200 to 500 ft
< 800m
< 200 ft
Symbols :   Thunderstorms  Fog  Heavy snow  Heavy precipitations  Wind > 20 kt
SIGMETs :     Misc.  Thunderstorms  Icing  Turbulence  Mountain Waves  Volcanic Ashes







- Airport Elevation : 939 ft


LKKB - Kbely Air Base

CURRENT METAR :
  • 182000Z 34005KT CAVOK M00/M08 Q1021 NOSIG

EXPIRED METARs :
  • 181900Z 33004KT CAVOK 00/M07 Q1022 NOSIG
  • 181800Z 34005KT 310V020 CAVOK 01/M05 Q1022 NOSIG

TAF TAF LKKB
Valid from the 18 at 18:00 until the 19 at 18:00 UTC


181700Z 1818/1918 VRB02KT CAVOK
BECMG 1820/1822 SCT018 BKN025
TEMPO 1823/1910 5000 SN SCT012 OVC020
PROB40
TEMPO 1905/1909 2000 SN BKN010
BECMG 1910/1912 08008KT SCT025
BECMG 1912/1914 BKN028
No reported NOTAMs for that airfield.
1 SIGMET reported for the Praha FIR (LKAA) :
 
Severe turbulence
LKAA SIGMET 3 VALID 181830/182100 LKPW
LKAA PRAHA FIR SEV TURB FCST SE OF LINE N5021 E01834 - N4857 E01502 FL300/370 MOV SSW WKN=



MET'MAP, your aeronautical weather chart ! - Copyright ORBIFLY December 2007 - Disclaimer

ORBIFLY MET'MAP TEAM :

Programming & Development : Alexandra Zaïnal
Concept & Development : Baudouin d'Aumeries
Co-Development & Prog : Marc-Olivier Méhu
Technical & hardware support : Manuel Goepfert

Contact : metmap@orbifly.com




SOURCES & CREDITS :

   NOAA